Aérodrome :
LOGIN :

S'inscrire | Disclaimer

   EN    FR    IT 

 










Légende :    VFR   VFR Marginal   IFR   IFR Intensif   IFR Très Intensif
Visi : 
Plafond : 
>= 8 km
>= 3000ft
5 à 8 km
1000 à 3000 ft
1500m à 5 km
500 à 1000 ft
800 à 1500m
200 à 500 ft
< 800m
< 200 ft
Symboles :   Orages  Brouillard  Fortes neiges  Fortes précipitations  Vent > 20 kt
SIGMETs :   Divers  Orages  Givrage  Turbulence  Onde Orograph.  Cendres Volcan.






- Altitude de l'aérodrome : 464 ft
- Code IATA : EVX


LFOE - Evreux

DERNIER METAR :
  • 231830Z AUTO 08012KT 050V110 9999 FEW049 SCT140 BKN220 26/16 Q1008

METARs EXPIRÉS :
  • 231800Z AUTO 08012KT CAVOK 27/15 Q1008
  • 231730Z AUTO 08011KT CAVOK 27/16 Q1009
  • 231700Z AUTO 07011KT CAVOK 27/16 Q1009 TEMPO VRB20G30KT 2000 TSRAGS BECMG BKN050CB
  • 231630Z AUTO 08013KT CAVOK 27/16 Q1009 TEMPO VRB20G30KT 2000 TSRAGS BECMG BKN050CB
  • 231600Z AUTO 08013KT CAVOK 28/16 Q1010 BECMG VRB15G25KT 4000 SHRA BKN050CB

TAF TAF LFOE
Valide du 23 à 15h jusqu'au 24 à 15h UTC


231400Z 2315/2415 09012G22KT CAVOK
BECMG 2317/2318 VRB15G25KT 4000 SHRA BKN050CB
TEMPO 2318/2321 VRB20G30KT 2000 TSRAGS
PROB30
TEMPO 2318/2321 TSRAGR
PROB40
TEMPO 2321/2402 VRB15G30KT 2000 TSRA
BECMG 2402/2404 21010KT BKN015
BECMG 2406/2409 SCT025
TEMPO 2410/2415 3000 SHRA BKN030CB
PROB40
TEMPO 2412/2415 VRB15G30KT 2000 TSRA SCT014 BKN025CB



MET'MAP, la Météo Aéronautique d'un coup d'oeil ! - Copyright ORBIFLY Décembre 2007 - Disclaimer

ORBIFLY MET'MAP TEAM :

Programmation & Développement : Alexandra Zaïnal
Sur une idée originale de : Baudouin d'Aumeries
Assistance à la programmation : Marc-Olivier Méhu
Soutien technique & logistique : Manuel Goepfert

Contact : metmap@orbifly.com




SOURCES & CREDITS :

   NOAA